Airfield :
LOGIN :

Register | Disclaimer

   EN    FR    IT 

 










Legend :    VFR   Marginal VFR   IFR   Intensive IFR   Very Intensive IFR
Visi :
Ceiling :
>= 8 km
>= 3000ft
5 to 8 km
1000 to 3000 ft
1500m to 5 km
500 to 1000 ft
800 to 1500m
200 to 500 ft
< 800m
< 200 ft
Symbols :   Thunderstorms  Fog  Heavy snow  Heavy precipitations  Wind > 20 kt
SIGMETs :     Misc.  Thunderstorms  Icing  Turbulence  Mountain Waves  Volcanic Ashes






- Airport Elevation : 112 ft
- IATA code : KIR


EIKY - Kerry Farranfore

CURRENT METAR :
  • 201230Z 34003KT 260V070 9999 SCT021 06/04 Q0982

EXPIRED METARs :
  • 201200Z 01003KT 320V070 CAVOK 06/05 Q0982
  • 201130Z VRB02KT CAVOK 05/05 Q0982
  • 201100Z VRB01KT CAVOK 05/04 Q0982
  • 201030Z 36003KT 330V060 CAVOK 05/05 Q0982
  • 201000Z VRB02KT 9999 FEW026 05/05 Q0982

TAF TAF EIKY
Valid from the 20 at 12:00 until the 20 at 21:00 UTC


201100Z 2012/2021 VRB03KT 9999 FEW015
BECMG 2013/2015 28010KT
TEMPO 2013/2021 -SHRA BKN012 FEW018CB



MET'MAP, your aeronautical weather chart ! - Copyright ORBIFLY December 2007 - Disclaimer

ORBIFLY MET'MAP TEAM :

Programming & Development : Alexandra Zaïnal
Concept & original design : Baudouin d'Aumeries
Assistance for programming : Marc-Olivier Méhu
Technical & hardware support : Manuel Goepfert

Contact : metmap@orbifly.com




SOURCES & CREDITS :

   NOAA